Time;durP1;ratioP1;P1;durP2;ratioP2;P2;SDS_P1;SDS_P2;PMS_P1;PMS_P2;Temp;Humidity;BMP_temperature;BMP_pressure;BME280_temperature;BME280_humidity;BME280_pressure;Samples;Min_cycle;Max_cycle;Signal;HPM_P1;HPM_P2
2021/05/04 00:00:43;;;;;;;1.88;1.13;;;12.70;53.30;;;;;;5092126;28;20512;-74
2021/05/04 00:03:09;;;;;;;3.40;1.20;;;12.70;53.20;;;;;;5092548;28;20036;-74
2021/05/04 00:05:34;;;;;;;2.78;1.20;;;12.70;53.10;;;;;;5093127;28;20066;-75
2021/05/04 00:08:00;;;;;;;1.45;1.02;;;12.80;52.80;;;;;;5076014;28;20036;-75
2021/05/04 00:10:26;;;;;;;1.60;1.10;;;12.90;52.50;;;;;;5092799;28;20448;-74
2021/05/04 00:12:52;;;;;;;2.40;0.93;;;12.90;52.40;;;;;;5093357;28;20067;-76
2021/05/04 00:15:18;;;;;;;2.03;1.02;;;12.90;52.30;;;;;;5093136;28;20055;-75
2021/05/04 00:17:43;;;;;;;2.72;1.30;;;13.00;52.20;;;;;;5093702;28;20040;-74
2021/05/04 00:20:10;;;;;;;3.20;1.30;;;13.00;52.10;;;;;;5073377;28;20062;-74
2021/05/04 00:22:42;;;;;;;4.50;1.40;;;13.00;52.20;;;;;;5093227;28;20036;-74
2021/05/04 00:25:09;;;;;;;1.90;1.02;;;12.90;52.30;;;;;;5092149;28;20470;-75
2021/05/04 00:27:35;;;;;;;1.60;1.20;;;12.90;52.40;;;;;;5074485;28;20109;-74
2021/05/04 00:30:01;;;;;;;3.25;1.10;;;12.80;52.60;;;;;;5074678;28;20044;-74
2021/05/04 00:32:26;;;;;;;4.55;1.55;;;12.80;52.70;;;;;;5073532;28;20516;-74
2021/05/04 00:34:52;;;;;;;2.65;1.15;;;12.80;52.80;;;;;;5072190;28;20045;-76
2021/05/04 00:37:18;;;;;;;2.10;1.35;;;12.80;52.90;;;;;;5092091;28;20045;-75
2021/05/04 00:39:44;;;;;;;3.55;1.25;;;12.70;53.00;;;;;;5092254;28;20039;-75
2021/05/04 00:42:10;;;;;;;3.25;0.90;;;12.60;53.30;;;;;;5074234;28;20379;-75
2021/05/04 00:44:37;;;;;;;2.20;1.13;;;12.50;53.70;;;;;;5073714;28;20038;-76
2021/05/04 00:47:03;;;;;;;2.60;1.02;;;12.40;54.20;;;;;;5073614;28;20036;-75
2021/05/04 00:49:29;;;;;;;3.72;1.13;;;12.20;54.70;;;;;;5073530;28;20389;-74
2021/05/04 00:51:55;;;;;;;1.30;0.95;;;12.10;55.20;;;;;;5073345;28;20575;-74
2021/05/04 00:54:24;;;;;;;2.85;1.20;;;11.90;55.70;;;;;;5091228;28;20063;-75
2021/05/04 00:56:53;;;;;;;2.22;1.20;;;11.80;56.40;;;;;;5091315;28;20339;-74
2021/05/04 00:59:23;;;;;;;2.42;1.08;;;11.60;57.10;;;;;;5071488;28;20040;-76
2021/05/04 01:01:52;;;;;;;2.10;1.05;;;11.40;57.40;;;;;;5071611;28;20071;-75
2021/05/04 01:04:19;;;;;;;3.20;0.85;;;11.30;57.70;;;;;;5072643;28;20095;-75
2021/05/04 01:06:45;;;;;;;1.88;1.08;;;11.20;58.00;;;;;;5095241;28;20102;-75
2021/05/04 01:09:14;;;;;;;1.77;0.90;;;11.20;58.50;;;;;;5075592;28;20099;-75
2021/05/04 01:11:41;;;;;;;1.35;0.88;;;11.10;58.90;;;;;;5075927;28;20091;-74
2021/05/04 01:14:07;;;;;;;1.55;0.82;;;11.00;59.40;;;;;;5057528;28;20127;-76
2021/05/04 01:16:33;;;;;;;1.63;0.90;;;10.90;59.80;;;;;;5095371;28;20044;-75
2021/05/04 01:18:59;;;;;;;2.35;1.30;;;10.80;60.10;;;;;;5094763;28;20141;-75
2021/05/04 01:21:25;;;;;;;0.80;0.80;;;10.70;60.60;;;;;;5074065;28;20037;-75
2021/05/04 01:23:50;;;;;;;1.70;0.90;;;10.60;61.00;;;;;;5094584;28;20047;-74
2021/05/04 01:26:17;;;;;;;3.72;1.10;;;10.40;61.40;;;;;;5076047;28;20477;-75
2021/05/04 01:28:43;;;;;;;1.50;1.02;;;10.40;61.90;;;;;;5061740;28;20119;-77
2021/05/04 01:31:09;;;;;;;2.63;1.17;;;10.30;62.40;;;;;;5044843;28;20150;-75
2021/05/04 01:33:35;;;;;;;2.55;1.00;;;10.30;62.80;;;;;;5094420;28;20043;-76
2021/05/04 01:36:01;;;;;;;2.13;1.13;;;10.20;63.20;;;;;;5076035;28;20052;-74
2021/05/04 01:38:27;;;;;;;3.08;1.30;;;10.20;63.40;;;;;;5059236;28;20098;-74
2021/05/04 01:40:52;;;;;;;1.58;1.00;;;10.10;63.80;;;;;;5075881;28;20028;-74
2021/05/04 01:43:18;;;;;;;1.73;1.10;;;10.00;64.00;;;;;;5075685;28;20123;-75
2021/05/04 01:45:44;;;;;;;1.08;0.98;;;10.00;64.10;;;;;;5073971;28;20045;-75
2021/05/04 01:48:10;;;;;;;1.30;1.17;;;10.00;64.40;;;;;;5076070;28;20032;-74
2021/05/04 01:50:36;;;;;;;1.85;1.00;;;10.00;64.60;;;;;;5075976;28;20048;-75
2021/05/04 01:53:02;;;;;;;1.70;0.80;;;10.00;64.90;;;;;;5059937;28;20051;-75
2021/05/04 01:55:28;;;;;;;1.92;0.75;;;10.00;65.00;;;;;;5093981;28;20032;-75
2021/05/04 01:57:54;;;;;;;1.33;0.90;;;9.90;65.30;;;;;;5093793;28;20036;-75
2021/05/04 02:00:20;;;;;;;2.63;1.15;;;9.90;65.70;;;;;;5094362;28;20044;-74
2021/05/04 02:02:45;;;;;;;1.38;1.08;;;9.80;66.00;;;;;;5076056;28;20028;-76
2021/05/04 02:05:12;;;;;;;1.63;1.15;;;9.80;66.40;;;;;;5072624;28;20033;-75
2021/05/04 02:07:38;;;;;;;1.63;1.20;;;9.80;66.60;;;;;;5059689;28;20543;-76
2021/05/04 02:10:04;;;;;;;1.10;1.00;;;9.70;67.00;;;;;;5076041;28;20064;-74
2021/05/04 02:12:30;;;;;;;1.13;0.90;;;9.60;67.40;;;;;;5075605;28;20097;-75
2021/05/04 02:14:55;;;;;;;1.73;1.10;;;9.60;67.60;;;;;;5075608;28;20036;-74
2021/05/04 02:17:21;;;;;;;1.65;1.10;;;9.50;68.30;;;;;;5093702;28;20044;-75
2021/05/04 02:19:47;;;;;;;1.80;0.90;;;9.50;68.30;;;;;;5075525;28;20066;-74
2021/05/04 02:22:13;;;;;;;1.45;1.15;;;9.40;68.50;;;;;;5094112;28;20036;-75
2021/05/04 02:24:38;;;;;;;1.60;1.27;;;9.40;68.70;;;;;;5075128;28;20044;-76
2021/05/04 02:27:05;;;;;;;1.52;1.20;;;9.40;69.30;;;;;;5058445;28;20080;-76
2021/05/04 02:29:31;;;;;;;2.25;1.35;;;9.40;69.60;;;;;;5075112;28;20037;-73
2021/05/04 02:31:57;;;;;;;2.65;1.52;;;9.40;70.30;;;;;;5094027;28;20043;-75
2021/05/04 02:34:22;;;;;;;3.17;1.60;;;9.40;70.60;;;;;;5094430;28;20066;-74
2021/05/04 02:36:48;;;;;;;1.58;0.98;;;9.40;70.50;;;;;;5093604;28;20028;-75
2021/05/04 02:39:14;;;;;;;1.63;1.20;;;9.40;70.50;;;;;;5093732;28;20420;-74
2021/05/04 02:41:39;;;;;;;3.67;1.60;;;9.40;70.80;;;;;;5075018;28;20051;-76
2021/05/04 02:44:06;;;;;;;2.22;1.30;;;9.40;71.00;;;;;;5058453;28;20405;-75
2021/05/04 02:46:32;;;;;;;2.15;1.17;;;9.40;70.90;;;;;;5073719;28;20114;-75
2021/05/04 02:48:58;;;;;;;1.83;1.23;;;9.40;71.20;;;;;;5041861;28;20040;-75
2021/05/04 02:51:24;;;;;;;2.00;1.30;;;9.40;71.30;;;;;;5075001;28;20044;-75
2021/05/04 02:53:50;;;;;;;3.90;1.10;;;9.30;71.20;;;;;;5093415;28;20097;-75
2021/05/04 02:56:16;;;;;;;2.05;1.10;;;9.40;71.50;;;;;;5075281;28;20036;-75
2021/05/04 02:58:42;;;;;;;1.73;1.30;;;9.30;71.70;;;;;;5074677;28;20075;-75
2021/05/04 03:01:08;;;;;;;1.20;1.10;;;9.30;72.00;;;;;;5073912;28;20127;-76
2021/05/04 03:03:35;;;;;;;1.25;1.02;;;9.20;72.30;;;;;;5093620;28;20043;-74
2021/05/04 03:06:01;;;;;;;1.77;1.10;;;9.20;72.50;;;;;;5076302;28;20126;-76
2021/05/04 03:08:27;;;;;;;1.42;1.27;;;9.10;72.70;;;;;;5094238;28;20071;-74
2021/05/04 03:10:53;;;;;;;1.67;1.38;;;9.10;73.00;;;;;;5075356;28;20044;-74
2021/05/04 03:13:24;;;;;;;1.55;0.95;;;9.10;73.10;;;;;;5093696;28;20059;-75
2021/05/04 03:15:50;;;;;;;1.70;1.10;;;9.10;73.20;;;;;;5094795;28;20050;-75
2021/05/04 03:18:16;;;;;;;3.35;1.20;;;9.10;73.40;;;;;;5059016;28;20040;-74
2021/05/04 03:20:41;;;;;;;2.67;1.40;;;9.10;73.60;;;;;;5092604;28;20097;-74
2021/05/04 03:23:07;;;;;;;1.65;1.10;;;9.10;73.80;;;;;;5092498;28;20036;-74
2021/05/04 03:25:33;;;;;;;2.40;1.38;;;9.10;73.90;;;;;;5072708;28;20133;-75
2021/05/04 03:27:59;;;;;;;3.30;1.20;;;9.10;74.10;;;;;;5093749;28;20040;-74
2021/05/04 03:30:26;;;;;;;1.75;1.30;;;9.20;74.10;;;;;;5074236;28;20398;-75
2021/05/04 03:32:52;;;;;;;1.60;1.10;;;9.20;74.10;;;;;;5077229;28;20560;-77
2021/05/04 03:35:18;;;;;;;1.52;1.20;;;9.30;74.00;;;;;;5093721;28;20066;-75
2021/05/04 03:37:45;;;;;;;2.90;1.23;;;9.30;73.90;;;;;;5075228;28;20169;-75
2021/05/04 03:40:11;;;;;;;2.00;1.02;;;9.30;73.90;;;;;;5075981;28;20401;-74
2021/05/04 03:42:36;;;;;;;1.35;1.17;;;9.40;73.90;;;;;;5094331;28;20550;-76
2021/05/04 03:45:03;;;;;;;1.20;1.08;;;9.30;73.90;;;;;;5075819;28;20044;-75
2021/05/04 03:47:29;;;;;;;2.47;1.50;;;9.40;74.00;;;;;;5075072;28;20104;-76
2021/05/04 03:49:55;;;;;;;1.58;1.10;;;9.40;74.10;;;;;;5059342;28;20047;-76
2021/05/04 03:52:21;;;;;;;2.17;1.30;;;9.30;74.30;;;;;;5092815;28;20048;-76
2021/05/04 03:54:47;;;;;;;1.67;1.02;;;9.20;74.60;;;;;;5093113;28;20047;-74
2021/05/04 03:57:13;;;;;;;2.92;1.25;;;9.10;75.00;;;;;;5074251;28;20044;-75
2021/05/04 03:59:40;;;;;;;1.15;1.00;;;9.20;75.40;;;;;;5092820;28;20040;-76
2021/05/04 04:02:06;;;;;;;2.55;1.17;;;9.10;75.30;;;;;;5072876;28;20040;-75
2021/05/04 04:04:31;;;;;;;2.13;1.20;;;9.10;75.70;;;;;;5092303;28;20032;-74
2021/05/04 04:06:57;;;;;;;2.45;1.35;;;9.10;75.90;;;;;;5055486;28;20045;-75
2021/05/04 04:09:23;;;;;;;2.28;1.10;;;9.00;76.10;;;;;;5094406;28;20506;-75
2021/05/04 04:11:49;;;;;;;2.47;1.17;;;9.00;76.10;;;;;;5040438;28;20414;-75
2021/05/04 04:14:14;;;;;;;1.00;0.88;;;9.00;76.20;;;;;;5092390;28;20096;-74
2021/05/04 04:16:40;;;;;;;1.88;1.17;;;9.00;76.20;;;;;;5092939;28;20032;-75
2021/05/04 04:19:08;;;;;;;1.80;1.30;;;9.00;76.50;;;;;;5073989;28;20040;-75
2021/05/04 04:21:34;;;;;;;1.98;1.40;;;9.00;76.70;;;;;;5092420;28;20406;-75
2021/05/04 04:24:01;;;;;;;1.85;1.08;;;9.00;76.70;;;;;;5074827;28;20064;-74
2021/05/04 04:26:27;;;;;;;2.03;1.13;;;9.10;76.50;;;;;;5075100;28;20036;-74
2021/05/04 04:28:53;;;;;;;1.13;0.95;;;9.10;76.50;;;;;;5092782;28;20389;-76
2021/05/04 04:31:18;;;;;;;2.42;1.10;;;9.10;76.60;;;;;;5092314;28;20040;-75
2021/05/04 04:33:44;;;;;;;1.02;0.90;;;9.10;76.70;;;;;;5073791;28;20044;-75
2021/05/04 04:36:10;;;;;;;2.20;1.30;;;9.00;77.40;;;;;;5071059;28;20164;-75
2021/05/04 04:38:35;;;;;;;1.70;1.15;;;8.90;77.10;;;;;;5095693;28;20138;-75
2021/05/04 04:41:01;;;;;;;1.48;1.08;;;8.90;77.30;;;;;;5095547;28;20043;-74
2021/05/04 04:43:27;;;;;;;2.15;1.05;;;8.90;77.50;;;;;;5073820;28;20040;-74
2021/05/04 04:45:53;;;;;;;1.88;0.90;;;8.90;77.70;;;;;;5095158;28;20032;-74
2021/05/04 04:48:18;;;;;;;1.23;1.02;;;8.80;77.70;;;;;;5043752;28;20066;-74
2021/05/04 04:50:44;;;;;;;1.48;1.10;;;8.80;77.90;;;;;;5095245;28;20039;-74
2021/05/04 04:53:10;;;;;;;1.63;0.93;;;8.80;78.00;;;;;;5076984;28;20054;-75
2021/05/04 04:55:36;;;;;;;1.58;0.98;;;8.80;78.00;;;;;;5094946;28;20501;-75
2021/05/04 04:58:01;;;;;;;0.73;0.73;;;8.80;78.00;;;;;;5095453;28;20135;-75
2021/05/04 05:00:27;;;;;;;1.00;0.85;;;8.80;78.00;;;;;;5073268;28;20505;-74
2021/05/04 05:02:53;;;;;;;1.63;0.90;;;8.80;78.10;;;;;;5060003;28;20040;-75
2021/05/04 05:05:19;;;;;;;1.88;1.25;;;8.90;78.20;;;;;;5077101;28;20119;-75
2021/05/04 05:07:44;;;;;;;1.25;1.00;;;8.90;78.20;;;;;;5074386;28;20049;-75
2021/05/04 05:10:11;;;;;;;1.00;0.80;;;8.90;78.10;;;;;;5077593;28;20040;-74
2021/05/04 05:12:37;;;;;;;1.52;1.02;;;8.90;78.20;;;;;;5060009;28;21279;-74
2021/05/04 05:15:04;;;;;;;1.20;0.80;;;8.90;78.10;;;;;;5094717;28;20044;-75
2021/05/04 05:17:30;;;;;;;0.77;0.70;;;8.90;78.20;;;;;;5095100;28;20048;-75
2021/05/04 05:19:58;;;;;;;1.58;1.10;;;8.90;78.30;;;;;;5094663;28;20393;-75
2021/05/04 05:22:23;;;;;;;0.95;0.90;;;8.90;78.30;;;;;;5075449;28;20072;-74
2021/05/04 05:24:49;;;;;;;0.85;0.85;;;9.00;78.30;;;;;;5074187;28;20036;-75
2021/05/04 05:27:15;;;;;;;2.50;0.95;;;9.00;78.20;;;;;;5079619;28;20081;-74
2021/05/04 05:29:41;;;;;;;1.65;0.90;;;9.10;78.20;;;;;;5097490;28;20047;-74
2021/05/04 05:32:07;;;;;;;1.20;0.90;;;9.10;78.10;;;;;;5098616;28;20095;-74
2021/05/04 05:34:33;;;;;;;2.60;0.90;;;9.20;78.00;;;;;;5095693;28;20127;-74
2021/05/04 05:36:58;;;;;;;1.10;0.85;;;9.30;77.90;;;;;;5078238;28;20120;-75
2021/05/04 05:39:24;;;;;;;1.13;0.77;;;9.30;77.80;;;;;;5077760;28;21944;-73
2021/05/04 05:41:50;;;;;;;1.02;0.73;;;9.40;77.70;;;;;;5077662;28;20066;-75
2021/05/04 05:44:16;;;;;;;1.08;0.73;;;9.50;77.50;;;;;;5097716;28;20494;-75
2021/05/04 05:46:42;;;;;;;1.88;0.95;;;9.50;77.40;;;;;;5059577;28;20119;-74
2021/05/04 05:49:09;;;;;;;1.48;1.10;;;9.60;77.30;;;;;;5077034;28;20401;-75
2021/05/04 05:51:35;;;;;;;1.85;1.10;;;9.70;77.40;;;;;;5095869;28;20111;-73
2021/05/04 05:54:01;;;;;;;2.45;0.93;;;9.70;77.30;;;;;;5094975;28;20101;-74
2021/05/04 05:56:27;;;;;;;1.38;0.82;;;9.80;77.30;;;;;;5077753;28;20074;-74
2021/05/04 05:58:52;;;;;;;1.05;0.88;;;9.80;77.20;;;;;;5098837;28;20428;-73
2021/05/04 06:01:18;;;;;;;2.70;0.95;;;9.90;77.20;;;;;;5074490;28;20433;-74
2021/05/04 06:03:44;;;;;;;2.70;0.90;;;9.90;77.30;;;;;;5096467;28;20085;-75
2021/05/04 06:06:10;;;;;;;2.80;1.00;;;9.90;77.20;;;;;;5096806;28;20533;-73
2021/05/04 06:08:36;;;;;;;1.40;0.80;;;10.00;77.30;;;;;;5074522;28;20041;-75
2021/05/04 06:11:01;;;;;;;1.95;1.00;;;10.00;77.20;;;;;;5077450;28;20044;-75
2021/05/04 06:13:27;;;;;;;3.30;1.20;;;10.10;77.20;;;;;;5096942;28;20117;-76
2021/05/04 06:15:53;;;;;;;1.55;0.80;;;10.10;77.10;;;;;;5045026;28;20040;-75
2021/05/04 06:18:19;;;;;;;2.83;0.93;;;10.10;77.00;;;;;;5046263;28;20126;-75
2021/05/04 06:20:44;;;;;;;1.80;0.90;;;10.20;76.90;;;;;;5081326;28;20190;-75
2021/05/04 06:23:10;;;;;;;1.10;0.80;;;10.20;76.90;;;;;;5098722;28;20047;-75
2021/05/04 06:25:36;;;;;;;2.40;0.85;;;10.20;76.90;;;;;;5081053;28;20070;-76
2021/05/04 06:28:06;;;;;;;0.52;0.50;;;10.20;76.90;;;;;;5098640;28;20101;-75
2021/05/04 06:30:35;;;;;;;1.58;0.90;;;10.20;77.00;;;;;;5097223;28;20549;-74
2021/05/04 06:33:05;;;;;;;2.92;0.93;;;10.10;77.20;;;;;;5079310;28;20051;-75
2021/05/04 06:35:33;;;;;;;3.17;0.80;;;10.10;77.40;;;;;;5081760;28;20048;-75
2021/05/04 06:37:58;;;;;;;2.30;0.90;;;10.00;77.50;;;;;;5079260;28;20040;-75
2021/05/04 06:40:24;;;;;;;3.03;0.80;;;10.00;77.50;;;;;;5079627;28;20086;-75
2021/05/04 06:42:50;;;;;;;1.58;0.82;;;10.10;77.70;;;;;;5101081;28;20485;-75
2021/05/04 06:45:15;;;;;;;1.48;0.93;;;10.10;77.70;;;;;;5101424;28;20044;-75
2021/05/04 06:47:41;;;;;;;1.80;0.90;;;10.10;77.70;;;;;;5084246;28;20051;-74
2021/05/04 06:50:07;;;;;;;1.02;0.80;;;10.10;77.90;;;;;;5099752;28;20063;-75
2021/05/04 06:52:33;;;;;;;1.15;0.88;;;10.10;77.90;;;;;;5062814;28;20048;-76
2021/05/04 06:54:59;;;;;;;1.48;0.88;;;10.20;77.80;;;;;;5060326;28;20075;-75
2021/05/04 06:57:25;;;;;;;1.63;1.02;;;10.20;77.70;;;;;;5079603;28;20119;-76
2021/05/04 06:59:51;;;;;;;2.13;0.80;;;10.30;77.70;;;;;;5101728;28;20102;-76
2021/05/04 07:02:17;;;;;;;3.90;1.00;;;10.30;77.60;;;;;;5082319;28;20056;-75
2021/05/04 07:04:43;;;;;;;3.05;1.20;;;10.30;77.60;;;;;;5046606;28;20037;-75
2021/05/04 07:07:08;;;;;;;3.53;0.95;;;10.30;77.60;;;;;;5098270;28;20512;-76
2021/05/04 07:09:34;;;;;;;2.70;1.02;;;10.40;77.60;;;;;;5076882;28;20039;-75
2021/05/04 07:12:00;;;;;;;1.88;1.00;;;10.30;77.40;;;;;;5078126;28;20105;-75
2021/05/04 07:14:26;;;;;;;1.45;0.90;;;10.50;77.50;;;;;;5075374;28;20033;-75
2021/05/04 07:16:52;;;;;;;1.88;0.85;;;10.50;78.00;;;;;;5044412;28;20077;-74
2021/05/04 07:19:18;;;;;;;3.00;1.17;;;10.50;77.10;;;;;;5078039;28;20037;-75
2021/05/04 07:21:44;;;;;;;2.00;0.95;;;10.50;77.10;;;;;;5077635;28;20039;-76
2021/05/04 07:24:11;;;;;;;2.63;0.80;;;10.50;77.10;;;;;;5075203;28;20474;-74
2021/05/04 07:26:39;;;;;;;1.05;0.80;;;10.50;77.20;;;;;;5050189;28;20477;-75
2021/05/04 07:29:04;;;;;;;1.55;0.85;;;10.50;77.30;;;;;;5081325;28;20044;-74
2021/05/04 07:31:30;;;;;;;1.45;0.90;;;10.50;77.40;;;;;;5080011;28;20044;-77
2021/05/04 07:33:56;;;;;;;1.35;0.77;;;10.40;77.50;;;;;;5065387;28;20397;-75
2021/05/04 07:36:23;;;;;;;3.45;1.08;;;10.40;77.80;;;;;;5096329;28;20047;-75
2021/05/04 07:38:48;;;;;;;3.20;0.90;;;10.40;78.00;;;;;;5063093;28;20131;-74
2021/05/04 07:41:14;;;;;;;2.60;1.30;;;10.40;78.00;;;;;;5077827;28;20068;-75
2021/05/04 07:43:40;;;;;;;2.55;1.00;;;10.40;77.90;;;;;;5078480;28;20036;-76
2021/05/04 07:46:05;;;;;;;1.50;0.90;;;10.50;77.90;;;;;;5095533;28;20115;-75
2021/05/04 07:48:31;;;;;;;2.08;1.00;;;10.50;77.70;;;;;;5058445;28;20414;-74
2021/05/04 07:50:57;;;;;;;3.22;1.08;;;10.50;77.80;;;;;;5075453;28;20523;-75
2021/05/04 07:53:23;;;;;;;1.80;0.98;;;10.50;77.80;;;;;;5075245;28;20505;-76
2021/05/04 07:55:49;;;;;;;3.55;1.30;;;10.50;77.80;;;;;;5056366;28;20450;-75
2021/05/04 07:58:14;;;;;;;3.00;1.05;;;10.40;78.00;;;;;;5092868;28;20040;-75
2021/05/04 08:00:41;;;;;;;1.88;0.80;;;10.20;78.20;;;;;;5074020;28;20043;-74
2021/05/04 08:03:07;;;;;;;3.80;1.13;;;10.00;78.60;;;;;;5092427;28;20044;-74
2021/05/04 08:05:33;;;;;;;1.80;0.88;;;10.00;79.00;;;;;;5074516;28;20040;-75
2021/05/04 08:07:59;;;;;;;2.53;1.00;;;9.90;79.30;;;;;;5092418;28;20040;-75
2021/05/04 08:10:24;;;;;;;3.63;1.13;;;10.00;79.50;;;;;;5094072;28;20127;-75
2021/05/04 08:12:50;;;;;;;3.30;1.00;;;10.00;79.60;;;;;;5077625;28;20051;-74
2021/05/04 08:15:19;;;;;;;2.42;1.08;;;10.00;79.40;;;;;;5077634;28;20044;-75
2021/05/04 08:17:54;;;;;;;3.30;1.08;;;10.10;79.50;;;;;;5073370;28;20084;-75
2021/05/04 08:20:20;;;;;;;3.22;1.10;;;10.30;79.30;;;;;;5075957;28;20044;-76
2021/05/04 08:22:46;;;;;;;3.35;1.00;;;10.40;78.90;;;;;;5074609;28;20391;-76
2021/05/04 08:25:12;;;;;;;1.65;0.90;;;10.60;78.70;;;;;;5079217;28;20509;-75
2021/05/04 08:27:38;;;;;;;4.30;0.95;;;10.80;78.00;;;;;;5078150;28;20047;-74
2021/05/04 08:30:04;;;;;;;1.40;0.88;;;11.00;77.60;;;;;;5096071;28;20035;-76
2021/05/04 08:32:30;;;;;;;3.40;1.10;;;11.00;77.40;;;;;;5081649;28;20043;-74
2021/05/04 08:34:55;;;;;;;2.88;1.20;;;11.20;77.50;;;;;;5096634;28;20499;-79
2021/05/04 08:37:21;;;;;;;2.88;1.25;;;11.30;77.30;;;;;;5080117;28;20045;-76
2021/05/04 08:39:47;;;;;;;4.18;1.33;;;11.30;76.90;;;;;;5059924;28;20041;-75
2021/05/04 08:42:13;;;;;;;3.83;1.10;;;11.30;76.70;;;;;;5063280;28;20635;-76
2021/05/04 08:44:42;;;;;;;1.92;1.10;;;11.50;76.70;;;;;;5079306;28;20036;-76
2021/05/04 08:47:08;;;;;;;4.40;1.45;;;11.40;76.30;;;;;;5059622;28;20398;-77
2021/05/04 08:49:33;;;;;;;2.88;0.95;;;11.40;76.30;;;;;;5082461;28;20469;-78
2021/05/04 08:52:06;;;;;;;4.90;1.15;;;11.50;76.50;;;;;;5083409;28;20405;-81
2021/05/04 08:54:31;;;;;;;1.92;1.00;;;11.40;76.50;;;;;;5068580;28;20540;-78
2021/05/04 08:56:57;;;;;;;3.95;1.33;;;11.40;76.50;;;;;;5078524;28;20044;-75
2021/05/04 08:59:23;;;;;;;3.30;1.15;;;11.40;76.50;;;;;;5096021;28;20091;-74
2021/05/04 09:01:48;;;;;;;4.15;1.52;;;11.40;76.40;;;;;;5095413;28;20127;-74
2021/05/04 09:04:34;;;;;;;4.72;1.60;;;11.30;76.30;;;;;;5096596;28;20052;-73
2021/05/04 09:07:22;;;;;;;7.35;1.73;;;11.20;76.60;;;;;;5093773;28;20367;-72
2021/05/04 09:13:08;;;;;;;4.15;1.67;;;10.70;78.10;;;;;;5080796;28;20056;-75
2021/05/04 09:21:26;;;;;;;2.17;1.02;;;11.20;77.90;;;;;;5078508;28;20040;-74
2021/05/04 09:23:52;;;;;;;1.67;1.02;;;11.50;77.50;;;;;;5067294;28;20040;-77
2021/05/04 09:26:20;;;;;;;4.07;1.27;;;11.60;77.10;;;;;;5077355;28;20525;-76
2021/05/04 09:28:51;;;;;;;4.00;1.23;;;11.60;77.00;;;;;;5068414;28;20040;-76
2021/05/04 09:31:26;;;;;;;3.42;1.20;;;11.50;77.20;;;;;;5101679;28;20079;-76
2021/05/04 09:33:53;;;;;;;4.10;1.30;;;11.70;77.40;;;;;;5098707;28;20527;-76
2021/05/04 09:36:38;;;;;;;2.35;1.17;;;11.70;77.10;;;;;;5067026;28;20047;-76
2021/05/04 09:39:05;;;;;;;1.95;1.10;;;11.90;76.70;;;;;;5103044;28;20457;-79
2021/05/04 09:41:31;;;;;;;2.97;1.15;;;12.30;76.20;;;;;;5066459;28;20033;-77
2021/05/04 09:43:57;;;;;;;4.00;1.23;;;12.40;75.50;;;;;;5080305;28;20066;-76
2021/05/04 09:46:50;;;;;;;3.85;1.27;;;12.50;75.10;;;;;;5076398;28;20071;-78
2021/05/04 09:49:29;;;;;;;2.95;1.23;;;12.40;75.00;;;;;;5092960;28;20501;-76
2021/05/04 09:52:16;;;;;;;2.65;1.17;;;12.20;75.40;;;;;;5096023;28;20093;-74
2021/05/04 09:54:42;;;;;;;3.38;1.40;;;11.80;75.90;;;;;;5076556;28;20036;-75
2021/05/04 09:57:29;;;;;;;5.00;1.45;;;11.50;76.60;;;;;;5076180;28;20054;-76
2021/05/04 09:59:55;;;;;;;3.78;1.50;;;11.30;77.60;;;;;;5075783;28;20071;-75
2021/05/04 10:02:22;;;;;;;2.42;1.25;;;11.00;78.40;;;;;;5074259;28;20048;-74
2021/05/04 10:04:52;;;;;;;5.43;1.33;;;10.80;79.00;;;;;;5059105;28;20433;-73
2021/05/04 10:07:19;;;;;;;3.30;1.30;;;10.90;79.20;;;;;;5056375;28;20041;-74
2021/05/04 10:09:46;;;;;;;4.25;1.38;;;10.90;79.00;;;;;;5043081;28;20036;-74
2021/05/04 10:12:13;;;;;;;3.30;1.23;;;10.80;78.90;;;;;;5042394;28;20040;-75
2021/05/04 10:14:41;;;;;;;3.75;1.58;;;10.80;79.10;;;;;;5092422;28;20048;-76
2021/05/04 10:17:08;;;;;;;3.15;1.20;;;10.80;79.20;;;;;;5060916;28;20115;-75
2021/05/04 10:19:36;;;;;;;2.72;1.27;;;11.00;79.10;;;;;;5078447;28;20052;-75
2021/05/04 10:22:04;;;;;;;3.60;1.40;;;11.20;78.80;;;;;;5076480;28;20048;-75
2021/05/04 10:24:33;;;;;;;4.80;1.85;;;11.40;78.20;;;;;;5077611;28;20067;-75
2021/05/04 10:27:01;;;;;;;6.97;1.75;;;11.40;77.60;;;;;;5096501;28;20036;-75
2021/05/04 10:29:28;;;;;;;5.97;1.48;;;11.30;77.40;;;;;;5096211;28;20044;-75
2021/05/04 10:31:54;;;;;;;4.13;1.38;;;11.20;77.10;;;;;;5096463;28;20036;-74
2021/05/04 10:34:31;;;;;;;4.00;1.40;;;11.10;77.00;;;;;;5096313;28;20040;-77
2021/05/04 10:36:59;;;;;;;2.60;0.90;;;11.20;77.00;;;;;;5043413;28;20047;-76
2021/05/04 10:39:42;;;;;;;2.90;1.08;;;11.30;76.50;;;;;;5078044;28;20104;-75
2021/05/04 10:42:11;;;;;;;3.33;1.00;;;11.30;76.20;;;;;;5061201;28;20058;-76
2021/05/04 10:45:08;;;;;;;3.15;1.25;;;11.30;76.00;;;;;;5077623;28;20035;-78
2021/05/04 10:47:46;;;;;;;5.45;1.10;;;11.60;75.40;;;;;;5093478;28;20040;-75
2021/05/04 10:50:48;;;;;;;3.20;0.90;;;11.90;74.40;;;;;;5075070;28;20321;-75
2021/05/04 10:53:15;;;;;;;;;;;12.00;73.20;;;;;;5094163;28;20048;-76
2021/05/04 10:56:07;;;;;;;3.38;0.70;;;11.90;72.10;;;;;;5074928;28;20376;-76
2021/05/04 10:58:44;;;;;;;2.95;0.82;;;11.70;71.90;;;;;;5070768;28;20085;-75
2021/05/04 11:01:16;;;;;;;3.47;1.10;;;11.50;72.00;;;;;;5092782;28;20040;-75
2021/05/04 11:03:42;;;;;;;;;;;11.20;70.90;;;;;;5075750;28;20036;-76
2021/05/04 11:06:11;;;;;;;3.28;0.98;;;10.90;71.70;;;;;;5093340;28;20353;-76
2021/05/04 11:09:09;;;;;;;2.22;0.70;;;10.40;73.70;;;;;;5092839;28;20044;-75
2021/05/04 11:11:40;;;;;;;2.58;0.80;;;10.00;74.90;;;;;;5079655;28;20413;-75
2021/05/04 11:14:23;;;;;;;3.63;0.77;;;10.00;75.60;;;;;;5093405;28;20040;-77
2021/05/04 11:17:07;;;;;;;2.22;0.60;;;10.10;75.60;;;;;;5092997;28;20100;-77
2021/05/04 11:19:39;;;;;;;2.75;0.73;;;10.20;75.10;;;;;;5075233;28;20374;-75
2021/05/04 11:22:10;;;;;;;1.58;0.85;;;10.30;74.00;;;;;;5058698;28;20043;-75
2021/05/04 11:24:39;;;;;;;2.53;1.05;;;10.00;73.80;;;;;;5074824;28;20044;-75
2021/05/04 11:27:26;;;;;;;0.68;0.45;;;9.90;74.60;;;;;;5041465;28;20085;-78
2021/05/04 11:29:54;;;;;;;1.63;0.77;;;9.90;75.40;;;;;;5043807;28;20122;-76
2021/05/04 11:32:24;;;;;;;1.35;0.80;;;10.20;75.10;;;;;;5093065;28;20047;-77
2021/05/04 11:34:58;;;;;;;1.80;0.80;;;10.40;74.40;;;;;;5092017;28;20100;-75
2021/05/04 11:37:38;;;;;;;3.38;1.20;;;10.60;73.90;;;;;;5092417;28;20472;-76
2021/05/04 11:40:15;;;;;;;4.13;0.85;;;10.80;73.50;;;;;;5074699;28;20079;-76
2021/05/04 11:42:45;;;;;;;1.10;0.70;;;11.00;73.10;;;;;;5093079;28;20036;-74
2021/05/04 11:45:29;;;;;;;1.90;0.80;;;11.20;73.40;;;;;;5093515;28;20079;-75
2021/05/04 11:47:57;;;;;;;1.67;0.70;;;11.20;72.20;;;;;;5077249;28;20766;-76
2021/05/04 11:50:25;;;;;;;2.30;0.93;;;11.20;72.00;;;;;;5076316;28;20052;-76
2021/05/04 11:52:55;;;;;;;1.67;0.82;;;11.30;71.80;;;;;;5076410;28;20048;-76
2021/05/04 11:55:28;;;;;;;3.05;0.93;;;11.30;71.50;;;;;;5093588;28;20093;-76
2021/05/04 11:58:04;;;;;;;2.50;0.60;;;11.30;71.30;;;;;;5057047;28;20092;-74
2021/05/04 12:00:32;;;;;;;3.05;0.90;;;11.30;71.20;;;;;;5080272;28;20111;-76
2021/05/04 12:03:07;;;;;;;1.50;0.80;;;11.30;71.20;;;;;;5094402;28;20040;-77
2021/05/04 12:05:33;;;;;;;1.67;0.90;;;11.30;70.50;;;;;;5092866;28;20504;-78
2021/05/04 12:08:00;;;;;;;1.80;0.80;;;11.40;70.20;;;;;;5093939;28;20036;-74
2021/05/04 12:10:35;;;;;;;1.20;0.70;;;11.40;69.60;;;;;;5099940;28;20044;-81
2021/05/04 12:13:08;;;;;;;2.50;0.80;;;11.40;69.50;;;;;;5078410;28;20048;-77
2021/05/04 12:15:37;;;;;;;2.72;0.70;;;11.30;69.20;;;;;;5101868;28;20149;-77
2021/05/04 12:18:06;;;;;;;2.60;0.90;;;11.30;69.50;;;;;;5101304;28;20040;-74
2021/05/04 12:20:37;;;;;;;3.70;0.98;;;11.10;69.70;;;;;;5062787;28;20044;-76
2021/05/04 12:23:06;;;;;;;2.78;0.73;;;11.10;70.00;;;;;;5062284;28;20047;-76
2021/05/04 12:25:54;;;;;;;1.17;0.80;;;11.10;70.30;;;;;;5096557;28;20103;-75
2021/05/04 12:28:22;;;;;;;1.10;0.68;;;11.00;70.10;;;;;;5095474;28;20032;-75
2021/05/04 12:30:51;;;;;;;1.52;0.73;;;11.00;70.00;;;;;;5063248;28;20049;-77
2021/05/04 12:33:19;;;;;;;0.77;0.43;;;11.00;70.10;;;;;;5093706;28;20044;-75
2021/05/04 12:35:54;;;;;;;1.90;0.65;;;11.00;70.00;;;;;;5097068;28;20097;-76
2021/05/04 12:38:24;;;;;;;1.30;0.60;;;11.10;69.80;;;;;;5096931;28;20044;-76
2021/05/04 12:40:59;;;;;;;0.50;0.40;;;11.20;69.60;;;;;;5095209;28;20044;-77
2021/05/04 12:43:29;;;;;;;3.00;0.80;;;11.20;69.40;;;;;;5062408;28;20040;-77
2021/05/04 12:46:04;;;;;;;2.38;0.73;;;11.30;69.10;;;;;;5061162;28;20043;-76
2021/05/04 12:48:30;;;;;;;2.40;0.70;;;11.20;69.00;;;;;;5070932;28;20047;-73
2021/05/04 12:51:01;;;;;;;2.42;0.80;;;11.10;68.70;;;;;;5072844;28;20079;-74
2021/05/04 12:53:33;;;;;;;2.10;0.70;;;11.10;68.70;;;;;;5057129;28;20127;-75
2021/05/04 12:56:03;;;;;;;2.05;0.80;;;11.10;68.50;;;;;;5081682;28;20107;-77
2021/05/04 12:58:29;;;;;;;1.48;0.68;;;11.30;68.20;;;;;;5098650;28;20078;-76
2021/05/04 13:01:12;;;;;;;0.70;0.70;;;11.30;67.70;;;;;;5078835;28;20068;-76
2021/05/04 13:03:55;;;;;;;1.38;0.60;;;11.40;67.50;;;;;;5097845;28;20414;-77